sensor_id;sensor_type;location;lat;lon;timestamp;pressure;altitude;pressure_sealevel;temperature;humidity
33949;BME280;20229;49.856;19.030;2023-01-25T00:01:16;103596.50;;;1.54;98.93
33949;BME280;20229;49.856;19.030;2023-01-25T00:06:39;103592.73;;;1.48;99.09
33949;BME280;20229;49.856;19.030;2023-01-25T00:11:43;103587.44;;;1.51;99.28
33949;BME280;20229;49.856;19.030;2023-01-25T00:17:04;103583.75;;;1.47;99.41
33949;BME280;20229;49.856;19.030;2023-01-25T00:22:08;103582.03;;;1.49;99.14
33949;BME280;20229;49.856;19.030;2023-01-25T00:27:30;103576.55;;;1.46;99.48
33949;BME280;20229;49.856;19.030;2023-01-25T00:32:40;103574.85;;;1.50;99.11
33949;BME280;20229;49.856;19.030;2023-01-25T00:37:56;103568.41;;;1.44;99.49
33949;BME280;20229;49.856;19.030;2023-01-25T00:43:03;103568.49;;;1.48;99.47
33949;BME280;20229;49.856;19.030;2023-01-25T00:48:22;103557.59;;;1.41;99.54
33949;BME280;20229;49.856;19.030;2023-01-25T00:53:25;103545.86;;;1.39;99.44
33949;BME280;20229;49.856;19.030;2023-01-25T00:58:47;103552.83;;;1.31;99.60
33949;BME280;20229;49.856;19.030;2023-01-25T01:03:50;103563.62;;;1.33;99.86
33949;BME280;20229;49.856;19.030;2023-01-25T01:09:15;103560.81;;;1.28;99.92
33949;BME280;20229;49.856;19.030;2023-01-25T01:14:21;103551.04;;;1.32;100.00
33949;BME280;20229;49.856;19.030;2023-01-25T01:19:39;103539.28;;;1.28;100.00
33949;BME280;20229;49.856;19.030;2023-01-25T01:24:42;103539.37;;;1.31;99.85
33949;BME280;20229;49.856;19.030;2023-01-25T01:30:06;103544.57;;;1.25;100.00
33949;BME280;20229;49.856;19.030;2023-01-25T01:35:09;103534.70;;;1.24;99.67
33949;BME280;20229;49.856;19.030;2023-01-25T01:40:30;103517.49;;;1.19;99.96
33949;BME280;20229;49.856;19.030;2023-01-25T01:50:59;103499.62;;;1.21;100.00
33949;BME280;20229;49.856;19.030;2023-01-25T01:56:07;103504.23;;;1.27;99.75
33949;BME280;20229;49.856;19.030;2023-01-25T02:01:21;103489.88;;;1.26;100.00
33949;BME280;20229;49.856;19.030;2023-01-25T02:11:50;103477.21;;;1.22;99.63
33949;BME280;20229;49.856;19.030;2023-01-25T02:16:54;103478.09;;;1.21;99.69
33949;BME280;20229;49.856;19.030;2023-01-25T02:22:15;103474.52;;;1.22;99.57
33949;BME280;20229;49.856;19.030;2023-01-25T02:27:24;103452.91;;;1.19;99.58
33949;BME280;20229;49.856;19.030;2023-01-25T02:32:38;103452.82;;;1.16;99.64
33949;BME280;20229;49.856;19.030;2023-01-25T02:37:41;103446.64;;;1.20;99.90
33949;BME280;20229;49.856;19.030;2023-01-25T02:43:04;103447.52;;;1.19;99.98
33949;BME280;20229;49.856;19.030;2023-01-25T02:48:07;103440.45;;;1.23;99.65
33949;BME280;20229;49.856;19.030;2023-01-25T02:53:30;103453.81;;;1.19;99.64
33949;BME280;20229;49.856;19.030;2023-01-25T02:58:33;103450.30;;;1.22;99.62
33949;BME280;20229;49.856;19.030;2023-01-25T03:03:55;103460.05;;;1.17;99.75
33949;BME280;20229;49.856;19.030;2023-01-25T03:08:59;103452.99;;;1.22;99.94
33949;BME280;20229;49.856;19.030;2023-01-25T03:14:21;103442.23;;;1.22;99.92
33949;BME280;20229;49.856;19.030;2023-01-25T03:19:25;103453.10;;;1.27;99.83
33949;BME280;20229;49.856;19.030;2023-01-25T03:24:47;103440.50;;;1.24;99.74
33949;BME280;20229;49.856;19.030;2023-01-25T03:29:50;103424.40;;;1.27;99.46
33949;BME280;20229;49.856;19.030;2023-01-25T03:35:13;103440.50;;;1.24;99.57
33949;BME280;20229;49.856;19.030;2023-01-25T03:40:16;103430.66;;;1.26;99.60
33949;BME280;20229;49.856;19.030;2023-01-25T03:45:39;103441.23;;;1.18;99.32
33949;BME280;20229;49.856;19.030;2023-01-25T03:50:42;103444.01;;;1.22;99.51
33949;BME280;20229;49.856;19.030;2023-01-25T03:56:07;103443.93;;;1.18;99.31
33949;BME280;20229;49.856;19.030;2023-01-25T04:01:11;103449.33;;;1.20;99.25
33949;BME280;20229;49.856;19.030;2023-01-25T04:06:30;103447.52;;;1.19;99.49
33949;BME280;20229;49.856;19.030;2023-01-25T04:11:33;103441.41;;;1.25;99.62
33949;BME280;20229;49.856;19.030;2023-01-25T04:16:55;103433.27;;;1.23;99.07
33949;BME280;20229;49.856;19.030;2023-01-25T04:21:59;103427.89;;;1.23;99.10
33949;BME280;20229;49.856;19.030;2023-01-25T04:27:21;103418.97;;;1.24;99.12
33949;BME280;20229;49.856;19.030;2023-01-25T04:32:24;103404.73;;;1.30;98.75
33949;BME280;20229;49.856;19.030;2023-01-25T04:37:57;103407.41;;;1.28;98.57
33949;BME280;20229;49.856;19.030;2023-01-25T04:43:00;103402.05;;;1.30;98.52
33949;BME280;20229;49.856;19.030;2023-01-25T04:48:13;103398.45;;;1.29;98.28
33949;BME280;20229;49.856;19.030;2023-01-25T04:53:17;103402.19;;;1.34;98.09
33949;BME280;20229;49.856;19.030;2023-01-25T04:58:38;103393.13;;;1.31;98.27
33949;BME280;20229;49.856;19.030;2023-01-25T05:03:41;103393.25;;;1.37;98.57
33949;BME280;20229;49.856;19.030;2023-01-25T05:09:05;103385.06;;;1.31;98.39
33949;BME280;20229;49.856;19.030;2023-01-25T05:14:08;103381.51;;;1.33;98.17
33949;BME280;20229;49.856;19.030;2023-01-25T05:19:30;103385.87;;;1.28;98.49
33949;BME280;20229;49.856;19.030;2023-01-25T05:24:34;103378.78;;;1.32;98.41
33949;BME280;20229;49.856;19.030;2023-01-25T05:29:56;103380.52;;;1.30;98.66
33949;BME280;20229;49.856;19.030;2023-01-25T05:34:59;103381.51;;;1.33;98.50
33949;BME280;20229;49.856;19.030;2023-01-25T05:40:22;103372.42;;;1.28;98.54
33949;BME280;20229;49.856;19.030;2023-01-25T05:45:25;103368.02;;;1.32;98.70
33949;BME280;20229;49.856;19.030;2023-01-25T05:50:47;103371.52;;;1.28;98.52
33949;BME280;20229;49.856;19.030;2023-01-25T05:55:50;103368.91;;;1.31;98.38
33949;BME280;20229;49.856;19.030;2023-01-25T06:01:13;103370.66;;;1.30;98.49
33949;BME280;20229;49.856;19.030;2023-01-25T06:06:17;103375.28;;;1.34;98.73
33949;BME280;20229;49.856;19.030;2023-01-25T06:11:38;103372.51;;;1.31;98.60
33949;BME280;20229;49.856;19.030;2023-01-25T06:16:44;103364.54;;;1.36;98.41
33949;BME280;20229;49.856;19.030;2023-01-25T06:22:04;103368.02;;;1.32;98.39
33949;BME280;20229;49.856;19.030;2023-01-25T06:27:11;103358.24;;;1.35;97.60
33949;BME280;20229;49.856;19.030;2023-01-25T06:32:33;103371.62;;;1.32;96.93
33949;BME280;20229;49.856;19.030;2023-01-25T06:37:36;103363.62;;;1.35;96.71
33949;BME280;20229;49.856;19.030;2023-01-25T06:48:10;103368.02;;;1.32;95.98
33949;BME280;20229;49.856;19.030;2023-01-25T06:53:22;103349.13;;;1.30;95.25
33949;BME280;20229;49.856;19.030;2023-01-25T06:58:27;103348.39;;;1.36;95.14
33949;BME280;20229;49.856;19.030;2023-01-25T07:03:51;103351.98;;;1.36;94.97
33949;BME280;20229;49.856;19.030;2023-01-25T07:08:55;103351.30;;;1.45;95.13
33949;BME280;20229;49.856;19.030;2023-01-25T07:14:12;103353.13;;;1.48;94.61
33949;BME280;20229;49.856;19.030;2023-01-25T07:19:16;103349.70;;;1.55;94.96
33949;BME280;20229;49.856;19.030;2023-01-25T07:24:38;103350.61;;;1.55;94.64
33949;BME280;20229;49.856;19.030;2023-01-25T07:29:42;103349.94;;;1.64;94.12
33949;BME280;20229;49.856;19.030;2023-01-25T07:35:05;103347.25;;;1.65;92.90
33949;BME280;20229;49.856;19.030;2023-01-25T07:40:09;103335.80;;;1.74;93.05
33949;BME280;20229;49.856;19.030;2023-01-25T07:45:30;103330.55;;;1.80;93.12
33949;BME280;20229;49.856;19.030;2023-01-25T07:50:33;103329.84;;;1.89;92.56
33949;BME280;20229;49.856;19.030;2023-01-25T07:55:57;103319.16;;;1.94;92.62
33949;BME280;20229;49.856;19.030;2023-01-25T08:01:07;103296.97;;;2.07;92.45
33949;BME280;20229;49.856;19.030;2023-01-25T08:06:25;103295.33;;;2.15;92.08
33949;BME280;20229;49.856;19.030;2023-01-25T08:11:36;103297.46;;;2.31;91.91
33949;BME280;20229;49.856;19.030;2023-01-25T08:16:47;103305.60;;;2.34;90.64
33949;BME280;20229;49.856;19.030;2023-01-25T08:21:50;103280.70;;;2.48;90.84
33949;BME280;20229;49.856;19.030;2023-01-25T08:27:12;103278.97;;;2.51;89.81
33949;BME280;20229;49.856;19.030;2023-01-25T08:32:15;103272.81;;;2.60;90.28
33949;BME280;20229;49.856;19.030;2023-01-25T08:37:38;103278.27;;;2.63;89.89
33949;BME280;20229;49.856;19.030;2023-01-25T08:42:41;103277.52;;;2.72;89.81
33949;BME280;20229;49.856;19.030;2023-01-25T08:48:04;103277.56;;;2.75;89.29
33949;BME280;20229;49.856;19.030;2023-01-25T08:53:07;103257.83;;;2.76;88.91
33949;BME280;20229;49.856;19.030;2023-01-25T08:58:29;103262.20;;;2.69;88.30
33949;BME280;20229;49.856;19.030;2023-01-25T09:03:35;103271.20;;;2.71;88.15
33949;BME280;20229;49.856;19.030;2023-01-25T09:08:55;103271.97;;;2.64;88.68
33949;BME280;20229;49.856;19.030;2023-01-25T09:13:58;103268.45;;;2.67;88.50
33949;BME280;20229;49.856;19.030;2023-01-25T09:19:20;103258.42;;;2.59;88.07
33949;BME280;20229;49.856;19.030;2023-01-25T09:24:24;103258.44;;;2.61;87.87
33949;BME280;20229;49.856;19.030;2023-01-25T09:29:46;103252.98;;;2.56;87.78
33949;BME280;20229;49.856;19.030;2023-01-25T09:34:50;103245.85;;;2.60;87.50
33949;BME280;20229;49.856;19.030;2023-01-25T09:40:20;103239.50;;;2.58;86.18
33949;BME280;20229;49.856;19.030;2023-01-25T09:45:32;103225.23;;;2.63;86.27
33949;BME280;20229;49.856;19.030;2023-01-25T09:50:51;103227.04;;;2.64;86.96
33949;BME280;20229;49.856;19.030;2023-01-25T09:55:57;103218.23;;;2.75;86.00
33949;BME280;20229;49.856;19.030;2023-01-25T10:06:22;103188.76;;;2.87;85.46
33949;BME280;20229;49.856;19.030;2023-01-25T10:11:32;103186.95;;;2.87;85.76
33949;BME280;20229;49.856;19.030;2023-01-25T10:16:50;103178.06;;;2.95;85.78
33949;BME280;20229;49.856;19.030;2023-01-25T10:32:29;103151.28;;;3.10;84.83
33949;BME280;20229;49.856;19.030;2023-01-25T10:37:36;103132.58;;;3.24;84.47
33949;BME280;20229;49.856;19.030;2023-01-25T10:42:56;103140.67;;;3.24;84.35
33949;BME280;20229;49.856;19.030;2023-01-25T10:48:06;103127.21;;;3.25;83.32
33949;BME280;20229;49.856;19.030;2023-01-25T10:53:23;103120.92;;;3.28;82.99
33949;BME280;20229;49.856;19.030;2023-01-25T10:58:33;103122.80;;;3.33;83.60
33949;BME280;20229;49.856;19.030;2023-01-25T11:03:42;103118.27;;;3.29;83.44
33949;BME280;20229;49.856;19.030;2023-01-25T11:08:48;103103.02;;;3.34;83.03
33949;BME280;20229;49.856;19.030;2023-01-25T11:19:26;103084.16;;;3.39;82.88
33949;BME280;20229;49.856;19.030;2023-01-25T11:24:34;103071.55;;;3.37;82.73
33949;BME280;20229;49.856;19.030;2023-01-25T11:29:38;103067.05;;;3.39;82.75
33949;BME280;20229;49.856;19.030;2023-01-25T11:34:54;103063.49;;;3.40;82.79
33949;BME280;20229;49.856;19.030;2023-01-25T11:50:40;103039.08;;;3.32;82.59
33949;BME280;20229;49.856;19.030;2023-01-25T11:55:58;103041.65;;;3.21;82.05
33949;BME280;20229;49.856;19.030;2023-01-25T12:01:11;103035.35;;;3.21;82.65
33949;BME280;20229;49.856;19.030;2023-01-25T12:22:15;103000.20;;;3.11;83.29
33949;BME280;20229;49.856;19.030;2023-01-25T12:32:43;102986.73;;;3.18;83.68
33949;BME280;20229;49.856;19.030;2023-01-25T12:37:52;102977.73;;;3.17;83.71
33949;BME280;20229;49.856;19.030;2023-01-25T12:42:58;102967.88;;;3.19;83.70
33949;BME280;20229;49.856;19.030;2023-01-25T12:53:24;102956.18;;;3.20;83.58
33949;BME280;20229;49.856;19.030;2023-01-25T13:30:10;102922.78;;;3.09;83.78
33949;BME280;20229;49.856;19.030;2023-01-25T13:40:36;102904.67;;;2.99;84.15
33949;BME280;20229;49.856;19.030;2023-01-25T13:45:41;102893.86;;;2.96;84.16
33949;BME280;20229;49.856;19.030;2023-01-25T13:50:49;102893.79;;;2.90;84.60
33949;BME280;20229;49.856;19.030;2023-01-25T13:55:56;102895.58;;;2.87;84.14
33949;BME280;20229;49.856;19.030;2023-01-25T14:01:06;102891.02;;;2.80;84.61
33949;BME280;20229;49.856;19.030;2023-01-25T14:06:37;102890.15;;;2.84;84.80
33949;BME280;20229;49.856;19.030;2023-01-25T14:11:31;102876.66;;;2.83;84.88
33949;BME280;20229;49.856;19.030;2023-01-25T14:16:36;102884.75;;;2.84;84.74
33949;BME280;20229;49.856;19.030;2023-01-25T14:21:46;102875.69;;;2.76;84.96
33949;BME280;20229;49.856;19.030;2023-01-25T14:26:49;102868.45;;;2.75;85.37
33949;BME280;20229;49.856;19.030;2023-01-25T14:32:17;102853.14;;;2.71;85.66
33949;BME280;20229;49.856;19.030;2023-01-25T14:37:22;102850.44;;;2.70;85.54
33949;BME280;20229;49.856;19.030;2023-01-25T14:42:38;102847.67;;;2.62;85.35
33949;BME280;20229;49.856;19.030;2023-01-25T14:47:42;102847.63;;;2.60;85.95
33949;BME280;20229;49.856;19.030;2023-01-25T14:53:14;102852.02;;;2.51;85.62
33949;BME280;20229;49.856;19.030;2023-01-25T14:58:22;102843.06;;;2.52;85.42
33949;BME280;20229;49.856;19.030;2023-01-25T15:03:30;102851.08;;;2.47;85.78
33949;BME280;20229;49.856;19.030;2023-01-25T15:08:37;102835.80;;;2.45;85.77
33949;BME280;20229;49.856;19.030;2023-01-25T15:14:02;102836.59;;;2.36;85.67
33949;BME280;20229;49.856;19.030;2023-01-25T15:19:22;102826.70;;;2.33;85.79
33949;BME280;20229;49.856;19.030;2023-01-25T15:24:27;102827.55;;;2.32;86.03
33949;BME280;20229;49.856;19.030;2023-01-25T15:29:30;102820.40;;;2.34;85.80
33949;BME280;20229;49.856;19.030;2023-01-25T15:34:47;102811.38;;;2.31;85.97
33949;BME280;20229;49.856;19.030;2023-01-25T15:39:50;102806.88;;;2.31;86.20
33949;BME280;20229;49.856;19.030;2023-01-25T15:45:12;102821.18;;;2.26;86.06
33949;BME280;20229;49.856;19.030;2023-01-25T15:50:17;102814.89;;;2.24;86.08
33949;BME280;20229;49.856;19.030;2023-01-25T15:55:38;102807.66;;;2.20;86.31
33949;BME280;20229;49.856;19.030;2023-01-25T16:00:42;102806.77;;;2.22;86.26
33949;BME280;20229;49.856;19.030;2023-01-25T16:06:20;102795.05;;;2.19;86.16
33949;BME280;20229;49.856;19.030;2023-01-25T16:11:18;102786.07;;;2.18;86.06
33949;BME280;20229;49.856;19.030;2023-01-25T16:16:30;102780.60;;;2.12;86.22
33949;BME280;20229;49.856;19.030;2023-01-25T16:21:33;102762.63;;;2.11;86.11
33949;BME280;20229;49.856;19.030;2023-01-25T16:26:57;102765.33;;;2.11;86.22
33949;BME280;20229;49.856;19.030;2023-01-25T16:32:00;102749.20;;;2.14;86.19
33949;BME280;20229;49.856;19.030;2023-01-25T16:37:21;102753.65;;;2.09;86.34
33949;BME280;20229;49.856;19.030;2023-01-25T16:42:24;102738.39;;;2.11;86.06
33949;BME280;20229;49.856;19.030;2023-01-25T16:47:47;102738.34;;;2.08;86.27
33949;BME280;20229;49.856;19.030;2023-01-25T16:52:50;102737.48;;;2.12;86.43
33949;BME280;20229;49.856;19.030;2023-01-25T16:58:12;102729.41;;;2.09;86.59
33949;BME280;20229;49.856;19.030;2023-01-25T17:03:16;102729.41;;;2.12;86.99
33949;BME280;20229;49.856;19.030;2023-01-25T17:08:38;102731.20;;;2.10;86.77
33949;BME280;20229;49.856;19.030;2023-01-25T17:13:42;102724.01;;;2.10;86.24
33949;BME280;20229;49.856;19.030;2023-01-25T17:19:10;102714.10;;;2.06;86.64
33949;BME280;20229;49.856;19.030;2023-01-25T17:24:16;102699.77;;;2.09;87.01
33949;BME280;20229;49.856;19.030;2023-01-25T17:29:30;102691.65;;;2.06;86.77
33949;BME280;20229;49.856;19.030;2023-01-25T17:34:33;102691.69;;;2.09;86.41
33949;BME280;20229;49.856;19.030;2023-01-25T17:39:56;102682.63;;;2.04;86.36
33949;BME280;20229;49.856;19.030;2023-01-25T17:44:59;102678.14;;;2.03;86.31
33949;BME280;20229;49.856;19.030;2023-01-25T17:50:22;102681.66;;;1.97;86.61
33949;BME280;20229;49.856;19.030;2023-01-25T17:55:25;102666.43;;;2.01;86.86
33949;BME280;20229;49.856;19.030;2023-01-25T18:00:48;102673.62;;;1.99;87.04
33949;BME280;20229;49.856;19.030;2023-01-25T18:05:58;102669.12;;;2.01;86.70
33949;BME280;20229;49.856;19.030;2023-01-25T18:11:16;102661.01;;;1.98;86.75
33949;BME280;20229;49.856;19.030;2023-01-25T18:16:22;102649.37;;;2.00;86.55
33949;BME280;20229;49.856;19.030;2023-01-25T18:21:39;102649.34;;;1.96;86.63
33949;BME280;20229;49.856;19.030;2023-01-25T18:26:44;102642.15;;;1.95;86.11
33949;BME280;20229;49.856;19.030;2023-01-25T18:32:05;102637.59;;;1.89;86.03
33949;BME280;20229;49.856;19.030;2023-01-25T18:37:08;102626.82;;;1.87;86.21
33949;BME280;20229;49.856;19.030;2023-01-25T18:42:30;102621.36;;;1.81;86.07
33949;BME280;20229;49.856;19.030;2023-01-25T18:47:34;102611.48;;;1.83;86.02
33949;BME280;20229;49.856;19.030;2023-01-25T18:52:56;102622.25;;;1.80;86.39
33949;BME280;20229;49.856;19.030;2023-01-25T18:57:59;102610.55;;;1.78;86.45
33949;BME280;20229;49.856;19.030;2023-01-25T19:03:22;102609.62;;;1.76;86.54
33949;BME280;20229;49.856;19.030;2023-01-25T19:08:26;102593.53;;;1.81;85.83
33949;BME280;20229;49.856;19.030;2023-01-25T19:13:48;102602.47;;;1.77;85.84
33949;BME280;20229;49.856;19.030;2023-01-25T19:18:53;102595.33;;;1.80;86.29
33949;BME280;20229;49.856;19.030;2023-01-25T19:24:15;102584.39;;;1.65;85.49
33949;BME280;20229;49.856;19.030;2023-01-25T19:29:19;102581.75;;;1.71;85.57
33949;BME280;20229;49.856;19.030;2023-01-25T19:34:39;102573.65;;;1.66;85.90
33949;BME280;20229;49.856;19.030;2023-01-25T19:39:42;102574.57;;;1.70;85.91
33949;BME280;20229;49.856;19.030;2023-01-25T19:45:05;102564.66;;;1.67;86.23
33949;BME280;20229;49.856;19.030;2023-01-25T19:50:10;102567.43;;;1.75;85.92
33949;BME280;20229;49.856;19.030;2023-01-25T19:55:30;102553.91;;;1.67;85.91
33949;BME280;20229;49.856;19.030;2023-01-25T20:00:34;102549.41;;;1.68;85.44
33949;BME280;20229;49.856;19.030;2023-01-25T20:05:59;102556.55;;;1.63;85.75
33949;BME280;20229;49.856;19.030;2023-01-25T20:11:10;102546.66;;;1.62;85.74
33949;BME280;20229;49.856;19.030;2023-01-25T20:16:22;102539.43;;;1.56;85.96
33949;BME280;20229;49.856;19.030;2023-01-25T20:21:27;102525.98;;;1.58;86.14
33949;BME280;20229;49.856;19.030;2023-01-25T20:26:47;102532.23;;;1.54;86.22
33949;BME280;20229;49.856;19.030;2023-01-25T20:31:53;102524.18;;;1.57;86.39
33949;BME280;20229;49.856;19.030;2023-01-25T20:37:13;102531.34;;;1.53;86.48
33949;BME280;20229;49.856;19.030;2023-01-25T20:43:06;102521.50;;;1.57;86.71
33949;BME280;20229;49.856;19.030;2023-01-25T20:48:32;102517.01;;;1.56;86.54
33949;BME280;20229;49.856;19.030;2023-01-25T20:53:40;102520.64;;;1.59;86.74
33949;BME280;20229;49.856;19.030;2023-01-25T20:58:58;102522.40;;;1.56;86.53
33949;BME280;20229;49.856;19.030;2023-01-25T21:04:03;102513.41;;;1.57;86.12
33949;BME280;20229;49.856;19.030;2023-01-25T21:09:24;102506.20;;;1.53;86.27
33949;BME280;20229;49.856;19.030;2023-01-25T21:14:30;102508.92;;;1.56;86.61
33949;BME280;20229;49.856;19.030;2023-01-25T21:19:49;102494.55;;;1.52;86.41
33949;BME280;20229;49.856;19.030;2023-01-25T21:24:53;102496.38;;;1.56;86.31
33949;BME280;20229;49.856;19.030;2023-01-25T21:30:16;102487.37;;;1.53;86.22
33949;BME280;20229;49.856;19.030;2023-01-25T21:35:19;102485.61;;;1.56;86.30
33949;BME280;20229;49.856;19.030;2023-01-25T21:40:41;102502.61;;;1.54;85.95
33949;BME280;20229;49.856;19.030;2023-01-25T21:45:44;102494.58;;;1.57;85.91
33949;BME280;20229;49.856;19.030;2023-01-25T21:51:11;102493.62;;;1.52;85.81
33949;BME280;20229;49.856;19.030;2023-01-25T21:56:27;102490.05;;;1.54;85.45
33949;BME280;20229;49.856;19.030;2023-01-25T22:01:32;102480.13;;;1.47;85.57
33949;BME280;20229;49.856;19.030;2023-01-25T22:06:35;102472.98;;;1.49;85.88
33949;BME280;20229;49.856;19.030;2023-01-25T22:11:58;102468.45;;;1.47;85.51
33949;BME280;20229;49.856;19.030;2023-01-25T22:17:03;102455.92;;;1.49;85.47
33949;BME280;20229;49.856;19.030;2023-01-25T22:22:24;102457.69;;;1.47;85.71
33949;BME280;20229;49.856;19.030;2023-01-25T22:27:35;102451.45;;;1.49;85.42
33949;BME280;20229;49.856;19.030;2023-01-25T22:32:49;102440.65;;;1.46;85.42
33949;BME280;20229;49.856;19.030;2023-01-25T22:37:53;102420.01;;;1.47;85.46
33949;BME280;20229;49.856;19.030;2023-01-25T22:43:15;102424.48;;;1.41;85.83
33949;BME280;20229;49.856;19.030;2023-01-25T22:48:18;102411.95;;;1.45;86.27
33949;BME280;20229;49.856;19.030;2023-01-25T22:53:41;102412.80;;;1.42;85.97
33949;BME280;20229;49.856;19.030;2023-01-25T22:58:46;102405.64;;;1.41;85.38
33949;BME280;20229;49.856;19.030;2023-01-25T23:04:07;102403.78;;;1.37;86.06
33949;BME280;20229;49.856;19.030;2023-01-25T23:09:10;102394.84;;;1.38;85.86
33949;BME280;20229;49.856;19.030;2023-01-25T23:14:33;102398.40;;;1.34;86.23
33949;BME280;20229;49.856;19.030;2023-01-25T23:19:48;102388.54;;;1.35;86.34
33949;BME280;20229;49.856;19.030;2023-01-25T23:24:58;102393.02;;;1.34;86.27
33949;BME280;20229;49.856;19.030;2023-01-25T23:30:03;102377.80;;;1.38;86.22
33949;BME280;20229;49.856;19.030;2023-01-25T23:35:24;102386.70;;;1.34;86.14
33949;BME280;20229;49.856;19.030;2023-01-25T23:40:29;102381.36;;;1.37;86.12
33949;BME280;20229;49.856;19.030;2023-01-25T23:45:50;102375.05;;;1.32;86.21
33949;BME280;20229;49.856;19.030;2023-01-25T23:50:53;102365.17;;;1.34;86.02
33949;BME280;20229;49.856;19.030;2023-01-25T23:56:18;102349.91;;;1.28;85.78
